createdAt,value
2024-02-06T00:00:44.987Z,278.50
2024-02-06T00:01:50.304Z,270.83
2024-02-06T00:02:52.013Z,263.83
2024-02-06T00:03:55.154Z,263.83
2024-02-06T00:04:58.283Z,266.00
2024-02-06T00:06:00.705Z,266.00
2024-02-06T00:07:02.578Z,268.50
2024-02-06T00:08:05.220Z,269.83
2024-02-06T00:09:06.985Z,270.50
2024-02-06T00:10:09.296Z,278.00
2024-02-06T00:11:13.224Z,322.50
2024-02-06T00:12:14.891Z,324.00
2024-02-06T00:13:16.667Z,320.33
2024-02-06T00:14:18.314Z,319.67
2024-02-06T00:15:20.039Z,307.17
2024-02-06T00:16:22.025Z,316.17
2024-02-06T00:17:23.743Z,361.17
2024-02-06T00:18:25.388Z,378.83
2024-02-06T00:19:27.083Z,321.67
2024-02-06T00:20:28.901Z,299.33
2024-02-06T00:21:30.667Z,325.50
2024-02-06T00:22:32.746Z,333.33
2024-02-06T00:23:34.605Z,352.33
2024-02-06T00:24:36.330Z,365.67
2024-02-06T00:25:38.154Z,363.50
2024-02-06T00:26:39.847Z,329.00
2024-02-06T00:27:41.604Z,383.83
2024-02-06T00:28:43.333Z,378.50
2024-02-06T00:29:45.114Z,398.00
2024-02-06T00:30:46.826Z,383.00
2024-02-06T00:31:48.727Z,339.00
2024-02-06T00:32:50.504Z,338.83
2024-02-06T00:33:52.534Z,341.17
2024-02-06T00:34:58.130Z,341.50
2024-02-06T00:36:02.484Z,342.67
2024-02-06T00:37:04.860Z,316.33
2024-02-06T00:38:06.616Z,316.83
2024-02-06T00:39:09.217Z,331.17
2024-02-06T00:40:12.483Z,347.17
2024-02-06T00:41:14.269Z,348.50
2024-02-06T00:42:15.994Z,334.00
2024-02-06T00:43:17.755Z,322.17
2024-02-06T00:44:20.634Z,323.83
2024-02-06T00:45:22.471Z,327.00
2024-02-06T00:46:24.160Z,328.17
2024-02-06T00:47:25.901Z,345.00
2024-02-06T00:48:27.688Z,357.00
2024-02-06T00:49:29.553Z,369.33
2024-02-06T00:50:31.517Z,395.50
2024-02-06T00:51:33.241Z,352.50
2024-02-06T00:52:35.014Z,295.83
2024-02-06T00:53:37.089Z,303.17
2024-02-06T00:54:38.794Z,313.33
2024-02-06T00:55:40.938Z,325.67
2024-02-06T00:56:42.795Z,322.50
2024-02-06T00:57:44.477Z,355.00
2024-02-06T00:58:46.202Z,378.17
2024-02-06T00:59:47.895Z,380.00
2024-02-06T01:00:50.524Z,398.33
2024-02-06T01:01:52.519Z,391.83
2024-02-06T01:02:54.232Z,399.67
2024-02-06T01:03:56.024Z,395.50
2024-02-06T01:04:57.972Z,364.00
2024-02-06T01:05:59.730Z,297.67
2024-02-06T01:07:01.586Z,272.17
2024-02-06T01:08:03.632Z,269.67
2024-02-06T01:09:05.775Z,280.00
2024-02-06T01:10:08.609Z,275.00
2024-02-06T01:11:11.146Z,274.83
2024-02-06T01:12:12.850Z,273.83
2024-02-06T01:13:14.584Z,275.33
2024-02-06T01:14:16.631Z,267.67
2024-02-06T01:15:18.644Z,266.33
2024-02-06T01:16:20.688Z,267.67
2024-02-06T01:17:22.377Z,269.50
2024-02-06T01:18:24.157Z,255.17
2024-02-06T01:19:25.962Z,256.00
2024-02-06T01:20:27.693Z,240.83
2024-02-06T01:21:29.416Z,230.17
2024-02-06T01:22:31.223Z,237.33
2024-02-06T01:23:33.457Z,249.00
2024-02-06T01:24:35.113Z,230.83
2024-02-06T01:25:36.956Z,217.17
2024-02-06T01:26:38.716Z,204.67
2024-02-06T01:27:40.463Z,209.50
2024-02-06T01:28:42.216Z,228.00
2024-02-06T01:29:44.086Z,230.83
2024-02-06T01:30:45.746Z,230.00
2024-02-06T01:31:47.506Z,229.00
2024-02-06T01:32:49.328Z,233.33
2024-02-06T01:33:51.144Z,263.17
2024-02-06T01:34:53.014Z,261.33
2024-02-06T01:35:54.707Z,265.67
2024-02-06T01:36:56.471Z,299.67
2024-02-06T01:37:58.162Z,311.67
2024-02-06T01:38:59.834Z,326.67
2024-02-06T01:40:01.560Z,311.67
2024-02-06T01:41:04.404Z,306.67
2024-02-06T01:42:07.217Z,315.83
2024-02-06T01:43:09.379Z,335.67
2024-02-06T01:44:11.688Z,348.83
2024-02-06T01:45:13.373Z,371.33
2024-02-06T01:46:15.385Z,374.33
2024-02-06T01:47:17.149Z,363.67
2024-02-06T01:48:18.977Z,350.50
2024-02-06T01:49:22.261Z,336.67
2024-02-06T01:50:24.335Z,325.00
2024-02-06T01:51:31.281Z,318.00
2024-02-06T01:52:33.196Z,313.33
2024-02-06T01:53:35.670Z,308.50
2024-02-06T01:54:37.454Z,306.33
2024-02-06T01:55:40.630Z,306.83
2024-02-06T01:56:43.197Z,307.00
2024-02-06T01:57:45.682Z,307.00
2024-02-06T01:58:47.493Z,307.50
2024-02-06T01:59:50.071Z,308.00
2024-02-06T02:00:52.701Z,308.83
2024-02-06T02:01:55.477Z,309.17
2024-02-06T02:02:58.055Z,311.50
2024-02-06T02:04:00.814Z,326.00
2024-02-06T02:05:04.088Z,332.17
2024-02-06T02:06:06.631Z,330.83
2024-02-06T02:07:10.316Z,340.50
2024-02-06T02:08:12.256Z,345.33
2024-02-06T02:09:14.058Z,345.67
2024-02-06T02:10:15.824Z,347.33
2024-02-06T02:11:18.596Z,343.67
2024-02-06T02:12:20.274Z,340.00
2024-02-06T02:13:22.048Z,338.17
2024-02-06T02:14:24.066Z,340.17
2024-02-06T02:15:25.827Z,338.83
2024-02-06T02:16:27.710Z,335.50
2024-02-06T02:17:29.447Z,331.17
2024-02-06T02:18:33.465Z,328.50
2024-02-06T02:19:35.331Z,327.00
2024-02-06T02:20:37.091Z,326.17
2024-02-06T02:21:39.873Z,325.83
2024-02-06T02:22:41.889Z,324.00
2024-02-06T02:23:47.230Z,321.83
2024-02-06T02:24:50.662Z,319.17
2024-02-06T02:25:53.193Z,317.17
2024-02-06T02:26:55.644Z,314.33
2024-02-06T02:27:58.823Z,314.83
2024-02-06T02:29:01.178Z,316.17
2024-02-06T02:30:04.116Z,317.50
2024-02-06T02:31:07.611Z,317.00
2024-02-06T02:32:10.895Z,305.17
2024-02-06T02:33:12.950Z,311.83
2024-02-06T02:34:16.152Z,367.50
2024-02-06T02:35:18.609Z,382.50
2024-02-06T02:36:20.397Z,378.67
2024-02-06T02:37:22.120Z,385.50
2024-02-06T02:38:24.667Z,367.83
2024-02-06T02:39:28.523Z,352.50
2024-02-06T02:40:30.213Z,340.50
2024-02-06T02:41:31.917Z,341.83
2024-02-06T02:42:33.625Z,339.50
2024-02-06T02:43:35.397Z,313.67
2024-02-06T02:44:37.224Z,275.67
2024-02-06T02:45:38.930Z,257.33
2024-02-06T02:46:40.642Z,246.83
2024-02-06T02:47:46.150Z,249.50
2024-02-06T02:48:47.874Z,258.83
2024-02-06T02:49:49.887Z,261.67
2024-02-06T02:50:51.605Z,260.83
2024-02-06T02:51:54.249Z,253.83
2024-02-06T02:52:55.958Z,253.50
2024-02-06T02:53:57.653Z,256.83
2024-02-06T02:54:59.326Z,260.50
2024-02-06T02:56:01.151Z,266.00
2024-02-06T02:57:02.947Z,272.83
2024-02-06T02:58:06.182Z,281.83
2024-02-06T02:59:07.824Z,288.33
2024-02-06T03:00:09.982Z,287.33
2024-02-06T03:01:11.867Z,286.17
2024-02-06T03:02:13.804Z,291.33
2024-02-06T03:03:15.857Z,293.00
2024-02-06T03:04:17.692Z,292.83
2024-02-06T03:05:19.407Z,302.83
2024-02-06T03:06:21.548Z,303.50
2024-02-06T03:07:23.436Z,300.67
2024-02-06T03:08:25.170Z,298.50
2024-02-06T03:09:28.637Z,297.00
2024-02-06T03:10:30.420Z,295.00
2024-02-06T03:11:32.137Z,293.00
2024-02-06T03:12:34.078Z,291.33
2024-02-06T03:13:37.807Z,290.17
2024-02-06T03:14:39.517Z,290.00
2024-02-06T03:15:41.231Z,288.67
2024-02-06T03:16:42.968Z,286.33
2024-02-06T03:17:44.758Z,279.00
2024-02-06T03:18:46.515Z,272.00
2024-02-06T03:19:48.321Z,267.50
2024-02-06T03:20:50.001Z,259.83
2024-02-06T03:21:51.762Z,261.67
2024-02-06T03:22:53.549Z,260.67
2024-02-06T03:23:55.200Z,258.50
2024-02-06T03:24:56.977Z,255.00
2024-02-06T03:25:58.688Z,255.83
2024-02-06T03:27:00.370Z,259.50
2024-02-06T03:28:02.097Z,264.33
2024-02-06T03:29:03.755Z,270.50
2024-02-06T03:30:07.107Z,269.67
2024-02-06T03:31:08.998Z,267.33
2024-02-06T03:32:11.386Z,294.83
2024-02-06T03:33:13.521Z,307.00
2024-02-06T03:34:15.530Z,306.67
2024-02-06T03:35:17.535Z,299.33
2024-02-06T03:36:19.314Z,290.50
2024-02-06T03:37:21.049Z,302.00
2024-02-06T03:38:22.740Z,318.83
2024-02-06T03:39:24.372Z,332.33
2024-02-06T03:40:26.076Z,332.83
2024-02-06T03:41:27.857Z,313.33
2024-02-06T03:42:29.559Z,310.00
2024-02-06T03:43:31.254Z,278.83
2024-02-06T03:44:32.927Z,271.17
2024-02-06T03:45:34.734Z,278.67
2024-02-06T03:46:36.727Z,269.83
2024-02-06T03:47:38.507Z,232.50
2024-02-06T03:48:40.239Z,228.67
2024-02-06T03:49:42.007Z,239.33
2024-02-06T03:50:43.771Z,247.83
2024-02-06T03:51:45.450Z,243.50
2024-02-06T03:52:47.217Z,250.17
2024-02-06T03:53:48.866Z,295.50
2024-02-06T03:54:50.561Z,301.67
2024-02-06T03:55:53.158Z,295.50
2024-02-06T03:56:54.959Z,269.33
2024-02-06T03:57:56.640Z,289.33
2024-02-06T03:58:58.461Z,310.17
2024-02-06T04:00:00.445Z,300.00
2024-02-06T04:01:02.270Z,313.50
2024-02-06T04:02:04.779Z,304.17
2024-02-06T04:03:06.659Z,300.17
2024-02-06T04:04:08.392Z,295.33
2024-02-06T04:05:10.092Z,278.17
2024-02-06T04:06:16.059Z,275.83
2024-02-06T04:07:19.150Z,277.67
2024-02-06T04:08:21.038Z,278.00
2024-02-06T04:09:22.719Z,274.00
2024-02-06T04:10:24.551Z,268.33
2024-02-06T04:11:26.456Z,265.17
2024-02-06T04:12:28.325Z,261.17
2024-02-06T04:13:29.989Z,254.67
2024-02-06T04:14:31.919Z,250.17
2024-02-06T04:15:33.981Z,251.50
2024-02-06T04:16:35.945Z,253.83
2024-02-06T04:17:37.934Z,254.67
2024-02-06T04:18:40.966Z,256.67
2024-02-06T04:19:42.822Z,258.00
2024-02-06T04:20:44.613Z,260.33
2024-02-06T04:21:46.274Z,271.00
2024-02-06T04:22:48.011Z,278.83
2024-02-06T04:23:49.697Z,278.17
2024-02-06T04:24:51.605Z,276.67
2024-02-06T04:25:53.447Z,273.67
2024-02-06T04:26:55.101Z,273.00
2024-02-06T04:27:57.723Z,275.17
2024-02-06T04:28:59.730Z,282.50
2024-02-06T04:30:01.395Z,281.50
2024-02-06T04:31:03.158Z,282.00
2024-02-06T04:32:05.393Z,284.17
2024-02-06T04:33:07.093Z,285.67
2024-02-06T04:34:09.561Z,284.83
2024-02-06T04:35:12.002Z,288.83
2024-02-06T04:36:13.796Z,308.50
2024-02-06T04:37:15.483Z,299.00
2024-02-06T04:38:18.692Z,297.67
2024-02-06T04:39:20.381Z,297.50
2024-02-06T04:40:23.938Z,301.83
2024-02-06T04:41:25.999Z,302.67
2024-02-06T04:42:27.645Z,300.17
2024-02-06T04:43:29.357Z,299.00
2024-02-06T04:44:31.085Z,298.67
2024-02-06T04:45:33.305Z,297.83
2024-02-06T04:46:35.027Z,297.00
2024-02-06T04:47:36.830Z,297.17
2024-02-06T04:48:38.676Z,298.67
2024-02-06T04:49:40.524Z,301.33
2024-02-06T04:50:42.647Z,305.33
2024-02-06T04:51:44.345Z,306.67
2024-02-06T04:52:47.048Z,306.33
2024-02-06T04:53:48.790Z,304.83
2024-02-06T04:54:50.740Z,304.00
2024-02-06T04:55:53.212Z,304.00
2024-02-06T04:56:54.848Z,304.00
2024-02-06T04:57:56.556Z,301.83
2024-02-06T04:58:58.381Z,289.33
2024-02-06T05:00:00.144Z,273.50
2024-02-06T05:01:02.003Z,276.50
2024-02-06T05:02:03.876Z,279.33
2024-02-06T05:03:05.637Z,298.33
2024-02-06T05:04:08.892Z,323.83
2024-02-06T05:05:10.759Z,311.67
2024-02-06T05:06:12.905Z,278.67
2024-02-06T05:07:15.189Z,272.17
2024-02-06T05:08:16.879Z,245.33
2024-02-06T05:09:18.633Z,228.33
2024-02-06T05:10:20.982Z,220.00
2024-02-06T05:11:22.710Z,219.00
2024-02-06T05:12:25.610Z,219.33
2024-02-06T05:13:28.088Z,219.67
2024-02-06T05:14:30.584Z,221.33
2024-02-06T05:15:32.347Z,223.00
2024-02-06T05:16:34.134Z,224.00
2024-02-06T05:17:36.204Z,226.33
2024-02-06T05:18:38.046Z,227.67
2024-02-06T05:19:43.806Z,253.17
2024-02-06T05:20:45.716Z,283.00
2024-02-06T05:21:47.722Z,274.00
2024-02-06T05:22:49.504Z,266.33
2024-02-06T05:23:51.188Z,263.00
2024-02-06T05:24:52.972Z,253.83
2024-02-06T05:25:54.814Z,244.17
2024-02-06T05:26:56.520Z,240.33
2024-02-06T05:27:59.965Z,240.33
2024-02-06T05:29:02.200Z,257.33
2024-02-06T05:30:06.179Z,258.00
2024-02-06T05:31:07.973Z,252.50
2024-02-06T05:32:09.768Z,250.17
2024-02-06T05:33:11.601Z,256.67
2024-02-06T05:34:13.474Z,266.83
2024-02-06T05:35:15.224Z,285.83
2024-02-06T05:36:16.950Z,293.67
2024-02-06T05:37:19.249Z,275.00
2024-02-06T05:38:20.958Z,258.17
2024-02-06T05:39:22.656Z,241.83
2024-02-06T05:40:24.348Z,234.67
2024-02-06T05:41:26.052Z,233.00
2024-02-06T05:42:27.717Z,232.00
2024-02-06T05:43:29.461Z,231.33
2024-02-06T05:44:31.124Z,232.83
2024-02-06T05:45:33.237Z,234.67
2024-02-06T05:46:35.041Z,235.33
2024-02-06T05:47:36.823Z,236.00
2024-02-06T05:48:40.720Z,236.67
2024-02-06T05:49:43.107Z,237.50
2024-02-06T05:50:44.868Z,237.83
2024-02-06T05:51:46.632Z,237.00
2024-02-06T05:52:48.668Z,253.00
2024-02-06T05:53:51.169Z,276.83
2024-02-06T05:54:52.916Z,278.50
2024-02-06T05:55:54.727Z,287.00
2024-02-06T05:56:56.521Z,278.33
2024-02-06T05:57:58.265Z,386.83
2024-02-06T05:59:02.088Z,381.33
2024-02-06T06:00:07.754Z,443.50
2024-02-06T06:01:10.878Z,457.67
2024-02-06T06:02:12.689Z,441.50
2024-02-06T06:03:14.437Z,448.50
2024-02-06T06:04:17.289Z,435.00
2024-02-06T06:05:19.177Z,420.17
2024-02-06T06:06:21.102Z,417.17
2024-02-06T06:07:22.828Z,393.83
2024-02-06T06:08:24.771Z,404.33
2024-02-06T06:09:26.461Z,377.33
2024-02-06T06:10:28.222Z,355.00
2024-02-06T06:11:29.910Z,357.50
2024-02-06T06:12:31.550Z,327.00
2024-02-06T06:13:34.767Z,317.50
2024-02-06T06:14:36.552Z,325.67
2024-02-06T06:15:38.518Z,362.33
2024-02-06T06:16:40.265Z,344.17
2024-02-06T06:17:42.006Z,279.17
2024-02-06T06:18:43.724Z,292.67
2024-02-06T06:19:45.550Z,318.00
2024-02-06T06:20:47.424Z,316.00
2024-02-06T06:21:49.120Z,309.17
2024-02-06T06:22:50.875Z,323.83
2024-02-06T06:23:52.517Z,293.33
2024-02-06T06:24:54.253Z,336.50
2024-02-06T06:25:57.676Z,366.83
2024-02-06T06:26:59.340Z,350.00
2024-02-06T06:28:01.041Z,346.67
2024-02-06T06:29:03.129Z,335.17
2024-02-06T06:30:06.713Z,310.67
2024-02-06T06:31:09.814Z,286.83
2024-02-06T06:32:11.482Z,296.33
2024-02-06T06:33:13.301Z,279.83
2024-02-06T06:34:15.062Z,292.50
2024-02-06T06:35:16.952Z,296.17
2024-02-06T06:36:19.452Z,283.50
2024-02-06T06:37:21.242Z,255.33
2024-02-06T06:38:22.913Z,247.17
2024-02-06T06:39:24.606Z,253.67
2024-02-06T06:40:28.252Z,263.00
2024-02-06T06:41:30.010Z,273.17
2024-02-06T06:42:32.383Z,270.00
2024-02-06T06:43:34.104Z,269.50
2024-02-06T06:44:35.796Z,259.00
2024-02-06T06:45:37.563Z,251.67
2024-02-06T06:46:39.458Z,248.00
2024-02-06T06:47:41.674Z,260.33
2024-02-06T06:48:43.419Z,314.00
2024-02-06T06:49:45.195Z,296.83
2024-02-06T06:50:46.873Z,310.67
2024-02-06T06:51:48.648Z,320.67
2024-02-06T06:52:50.469Z,304.33
2024-02-06T06:53:52.166Z,281.17
2024-02-06T06:54:53.946Z,266.83
2024-02-06T06:55:55.799Z,299.33
2024-02-06T06:56:57.494Z,305.50
2024-02-06T06:57:59.227Z,297.50
2024-02-06T06:59:01.021Z,295.33
2024-02-06T07:00:04.238Z,294.83
2024-02-06T07:01:06.715Z,293.00
2024-02-06T07:02:09.315Z,279.17
2024-02-06T07:03:11.115Z,260.50
2024-02-06T07:04:12.856Z,259.17
2024-02-06T07:05:14.712Z,245.33
2024-02-06T07:06:16.427Z,247.67
2024-02-06T07:07:19.154Z,236.33
2024-02-06T07:08:20.901Z,230.83
2024-02-06T07:09:23.777Z,239.50
2024-02-06T07:10:25.592Z,234.33
2024-02-06T07:11:27.364Z,232.83
2024-02-06T07:12:29.079Z,223.67
2024-02-06T07:13:30.930Z,226.83
2024-02-06T07:14:33.658Z,231.33
2024-02-06T07:15:35.637Z,231.17
2024-02-06T07:16:37.377Z,228.00
2024-02-06T07:17:39.160Z,228.50
2024-02-06T07:18:40.928Z,222.83
2024-02-06T07:19:42.778Z,224.67
2024-02-06T07:20:44.608Z,227.50
2024-02-06T07:21:58.920Z,229.67
2024-02-06T07:23:00.747Z,247.67
2024-02-06T07:24:02.522Z,247.00
2024-02-06T07:25:05.332Z,244.33
2024-02-06T07:26:12.219Z,253.33
2024-02-06T07:27:13.940Z,254.83
2024-02-06T07:28:15.694Z,252.50
2024-02-06T07:29:17.411Z,254.17
2024-02-06T07:30:27.458Z,257.83
2024-02-06T07:31:35.726Z,256.33
2024-02-06T07:32:40.858Z,255.83
2024-02-06T07:33:44.914Z,253.83
2024-02-06T07:34:46.729Z,248.33
2024-02-06T07:35:48.462Z,247.33
2024-02-06T07:36:50.242Z,239.17
2024-02-06T07:37:51.936Z,234.67
2024-02-06T07:38:53.967Z,232.00
2024-02-06T07:39:55.689Z,228.00
2024-02-06T07:40:57.619Z,220.50
2024-02-06T07:41:59.722Z,223.83
2024-02-06T07:43:01.522Z,222.83
2024-02-06T07:44:05.186Z,220.00
2024-02-06T07:45:08.145Z,225.50
2024-02-06T07:46:09.836Z,232.33
2024-02-06T07:47:11.578Z,226.50
2024-02-06T07:48:13.423Z,214.67
2024-02-06T07:49:15.250Z,209.00
2024-02-06T07:50:17.160Z,207.33
2024-02-06T07:51:18.860Z,207.00
2024-02-06T07:52:20.914Z,208.83
2024-02-06T07:53:22.747Z,210.33
2024-02-06T07:54:24.443Z,210.83
2024-02-06T07:55:26.254Z,212.50
2024-02-06T07:56:32.959Z,213.00
2024-02-06T07:57:35.491Z,219.67
2024-02-06T07:58:37.444Z,218.83
2024-02-06T07:59:39.574Z,212.83
2024-02-06T08:00:41.259Z,211.50
2024-02-06T08:01:43.363Z,220.33
2024-02-06T08:02:45.100Z,233.83
2024-02-06T08:03:46.849Z,230.67
2024-02-06T08:04:49.602Z,227.17
2024-02-06T08:06:53.099Z,205.67
2024-02-06T08:07:54.869Z,207.00
2024-02-06T08:09:06.748Z,207.67
2024-02-06T08:10:09.960Z,203.50
2024-02-06T08:11:11.693Z,203.17
2024-02-06T08:12:13.385Z,205.17
2024-02-06T08:13:15.160Z,208.83
2024-02-06T08:14:18.250Z,214.67
2024-02-06T08:15:19.952Z,214.17
2024-02-06T08:16:21.710Z,214.33
2024-02-06T08:17:23.417Z,212.67
2024-02-06T08:18:25.254Z,209.83
2024-02-06T08:19:27.485Z,197.00
2024-02-06T08:20:29.311Z,193.17
2024-02-06T08:21:31.234Z,193.67
2024-02-06T08:22:33.080Z,199.00
2024-02-06T08:23:34.770Z,202.33
2024-02-06T08:24:36.448Z,199.50
2024-02-06T08:25:38.152Z,195.50
2024-02-06T08:26:40.490Z,194.50
2024-02-06T08:27:42.312Z,187.50
2024-02-06T08:28:44.060Z,187.83
2024-02-06T08:29:45.821Z,184.83
2024-02-06T08:30:49.548Z,184.83
2024-02-06T08:31:51.337Z,184.33
2024-02-06T08:32:53.161Z,181.67
2024-02-06T08:33:55.650Z,187.33
2024-02-06T08:34:57.466Z,210.50
2024-02-06T08:35:59.387Z,206.50
2024-02-06T08:37:02.015Z,203.50
2024-02-06T08:38:05.047Z,199.17
2024-02-06T08:39:07.868Z,191.50
2024-02-06T08:40:12.033Z,183.33
2024-02-06T08:41:13.829Z,176.17
2024-02-06T08:42:15.573Z,176.00
2024-02-06T08:43:18.728Z,186.83
2024-02-06T08:44:20.919Z,192.33
2024-02-06T08:45:22.785Z,192.83
2024-02-06T08:46:24.778Z,209.67
2024-02-06T08:47:26.994Z,220.33
2024-02-06T08:48:31.611Z,217.00
2024-02-06T08:49:35.920Z,200.50
2024-02-06T08:50:37.778Z,174.33
2024-02-06T08:51:39.589Z,169.17
2024-02-06T08:52:43.041Z,173.33
2024-02-06T08:53:44.749Z,173.00
2024-02-06T08:54:46.438Z,176.00
2024-02-06T08:55:48.189Z,174.00
2024-02-06T08:56:49.992Z,172.83
2024-02-06T08:57:52.680Z,171.50
2024-02-06T08:58:55.148Z,170.17
2024-02-06T08:59:57.360Z,169.50
2024-02-06T09:00:59.177Z,165.67
2024-02-06T09:02:04.420Z,166.83
2024-02-06T09:03:06.270Z,168.00
2024-02-06T09:04:08.864Z,168.33
2024-02-06T09:05:11.127Z,169.00
2024-02-06T09:06:13.088Z,166.00
2024-02-06T09:07:14.954Z,164.17
2024-02-06T09:08:17.567Z,163.83
2024-02-06T09:09:22.506Z,163.83
2024-02-06T09:10:26.740Z,165.83
2024-02-06T09:11:29.069Z,170.33
2024-02-06T09:12:31.175Z,181.33
2024-02-06T09:13:33.054Z,181.00
2024-02-06T09:14:38.972Z,192.67
2024-02-06T09:15:42.827Z,187.67
2024-02-06T09:16:44.643Z,186.17
2024-02-06T09:17:47.765Z,181.33
2024-02-06T09:18:58.305Z,173.67
2024-02-06T09:20:01.344Z,237.67
2024-02-06T09:21:03.405Z,222.83
2024-02-06T09:22:05.104Z,230.50
2024-02-06T09:23:06.842Z,221.83
2024-02-06T09:24:08.885Z,199.00
2024-02-06T09:25:11.574Z,179.83
2024-02-06T09:26:16.225Z,174.33
2024-02-06T09:27:18.349Z,173.33
2024-02-06T09:28:20.113Z,168.50
2024-02-06T09:29:23.688Z,167.50
2024-02-06T09:30:25.587Z,170.83
2024-02-06T09:31:27.377Z,167.00
2024-02-06T09:32:29.892Z,165.33
2024-02-06T09:33:31.951Z,163.00
2024-02-06T09:34:33.950Z,166.33
2024-02-06T09:35:35.822Z,169.50
2024-02-06T09:36:39.543Z,170.00
2024-02-06T09:37:41.380Z,166.00
2024-02-06T09:38:43.158Z,164.33
2024-02-06T09:39:45.223Z,164.50
2024-02-06T09:40:48.482Z,166.17
2024-02-06T09:41:51.319Z,166.00
2024-02-06T09:42:54.252Z,168.67
2024-02-06T09:43:56.480Z,177.33
2024-02-06T09:44:59.908Z,183.17
2024-02-06T09:46:02.039Z,182.67
2024-02-06T09:47:05.168Z,179.50
2024-02-06T09:48:08.905Z,176.00
2024-02-06T09:49:10.909Z,174.67
2024-02-06T09:50:13.592Z,174.00
2024-02-06T09:51:17.263Z,173.17
2024-02-06T09:52:23.352Z,171.67
2024-02-06T09:53:27.916Z,170.17
2024-02-06T09:54:32.536Z,173.83
2024-02-06T09:55:34.411Z,173.33
2024-02-06T09:56:37.177Z,173.00
2024-02-06T09:57:42.141Z,173.00
2024-02-06T09:58:44.791Z,173.00
2024-02-06T09:59:51.165Z,173.83
2024-02-06T10:00:54.813Z,174.00
2024-02-06T10:01:56.768Z,174.50
2024-02-06T10:03:01.351Z,174.50
2024-02-06T10:04:04.985Z,175.83
2024-02-06T10:05:17.313Z,176.50
2024-02-06T10:06:24.995Z,179.50
2024-02-06T10:07:27.066Z,180.83
2024-02-06T10:08:28.778Z,181.00
2024-02-06T10:09:34.512Z,180.00
2024-02-06T10:10:37.208Z,177.83
2024-02-06T10:11:40.667Z,174.83
2024-02-06T10:12:44.593Z,171.33
2024-02-06T10:13:47.118Z,171.17
2024-02-06T10:14:48.890Z,176.67
2024-02-06T10:15:52.913Z,187.67
2024-02-06T10:16:54.735Z,195.00
2024-02-06T10:17:57.923Z,192.00
2024-02-06T10:19:01.241Z,193.83
2024-02-06T10:20:08.668Z,192.00
2024-02-06T10:21:10.545Z,193.67
2024-02-06T10:22:13.945Z,197.33
2024-02-06T10:23:18.697Z,205.00
2024-02-06T10:24:20.675Z,213.67
2024-02-06T10:25:22.642Z,220.33
2024-02-06T10:26:24.292Z,222.83
2024-02-06T10:27:27.317Z,218.17
2024-02-06T10:28:29.265Z,213.33
2024-02-06T10:29:33.751Z,212.17
2024-02-06T10:30:39.337Z,209.83
2024-02-06T10:31:41.519Z,204.83
2024-02-06T10:32:43.336Z,201.50
2024-02-06T10:33:45.309Z,196.67
2024-02-06T10:34:48.301Z,181.17
2024-02-06T10:35:50.696Z,179.00
2024-02-06T10:37:00.677Z,178.50
2024-02-06T10:38:04.330Z,174.00
2024-02-06T10:39:07.434Z,171.50
2024-02-06T10:40:13.180Z,178.33
2024-02-06T10:41:24.726Z,218.33
2024-02-06T10:43:45.696Z,178.83
2024-02-06T10:45:00.972Z,161.67
2024-02-06T10:46:05.654Z,165.17
2024-02-06T10:47:07.713Z,168.83
2024-02-06T10:48:10.065Z,170.50
2024-02-06T10:49:11.966Z,172.50
2024-02-06T10:50:15.173Z,170.67
2024-02-06T10:51:28.508Z,166.00
2024-02-06T10:52:32.269Z,164.67
2024-02-06T10:53:34.061Z,165.67
2024-02-06T10:54:37.144Z,162.00
2024-02-06T10:55:39.734Z,160.17
2024-02-06T10:56:54.077Z,161.83
2024-02-06T10:58:18.742Z,162.67
2024-02-06T10:59:34.227Z,162.00
2024-02-06T11:00:38.542Z,158.50
2024-02-06T11:01:41.547Z,156.83
2024-02-06T11:02:44.939Z,159.33
2024-02-06T11:03:58.553Z,166.00
2024-02-06T11:05:23.260Z,176.33
2024-02-06T11:06:31.598Z,175.67
2024-02-06T11:07:51.068Z,178.33
2024-02-06T11:08:55.143Z,177.00
2024-02-06T11:10:02.245Z,173.17
2024-02-06T11:11:05.276Z,169.83
2024-02-06T11:12:15.328Z,179.67
2024-02-06T11:13:28.709Z,179.17
2024-02-06T11:14:31.711Z,178.50
2024-02-06T11:15:37.662Z,178.67
2024-02-06T11:16:49.241Z,176.33
2024-02-06T11:17:53.537Z,170.00
2024-02-06T11:19:12.938Z,160.00
2024-02-06T11:20:22.822Z,145.50
2024-02-06T11:21:28.669Z,152.67
2024-02-06T11:22:42.146Z,158.83
2024-02-06T11:23:46.594Z,159.33
2024-02-06T11:24:49.616Z,130.33
2024-02-06T11:25:53.635Z,120.67
2024-02-06T11:26:56.611Z,134.50
2024-02-06T11:28:00.715Z,140.83
2024-02-06T11:29:08.112Z,143.67
2024-02-06T11:30:11.997Z,331.00
2024-02-06T11:31:14.374Z,383.67
2024-02-06T11:32:19.611Z,416.67
2024-02-06T11:33:35.383Z,297.50
2024-02-06T11:34:56.852Z,252.33
2024-02-06T11:36:18.820Z,215.67
2024-02-06T11:37:27.913Z,140.50
2024-02-06T11:38:29.823Z,98.67
2024-02-06T11:39:31.811Z,76.17
2024-02-06T11:40:34.797Z,72.50
2024-02-06T11:41:37.629Z,64.50
2024-02-06T11:42:40.627Z,49.50
2024-02-06T11:43:42.808Z,41.17
2024-02-06T11:44:44.646Z,33.17
2024-02-06T11:45:46.344Z,31.33
2024-02-06T11:46:50.893Z,32.33
2024-02-06T11:48:02.710Z,32.67
2024-02-06T11:49:09.245Z,28.67
2024-02-06T11:50:14.129Z,27.17
2024-02-06T11:51:26.691Z,28.33
2024-02-06T11:52:28.656Z,27.17
2024-02-06T11:53:32.825Z,25.17
2024-02-06T11:54:34.651Z,23.83
2024-02-06T11:55:37.450Z,25.67
2024-02-06T11:56:41.141Z,27.67
2024-02-06T11:57:43.219Z,30.00
2024-02-06T11:58:45.978Z,30.17
2024-02-06T11:59:48.724Z,27.17
2024-02-06T12:00:57.219Z,25.83
2024-02-06T12:01:59.175Z,27.50
2024-02-06T12:03:00.961Z,29.17
2024-02-06T12:04:05.389Z,30.33
2024-02-06T12:05:09.405Z,31.33
2024-02-06T12:06:12.230Z,32.00
2024-02-06T12:08:22.273Z,31.83
2024-02-06T12:09:25.765Z,31.00
2024-02-06T12:10:33.106Z,30.50
2024-02-06T12:11:43.064Z,29.33
2024-02-06T12:12:44.805Z,29.33
2024-02-06T12:13:46.836Z,30.00
2024-02-06T12:14:48.566Z,30.00
2024-02-06T12:15:50.342Z,29.67
2024-02-06T12:16:53.257Z,27.67
2024-02-06T12:17:55.016Z,27.00
2024-02-06T12:18:56.911Z,26.00
2024-02-06T12:20:07.000Z,24.83
2024-02-06T12:21:23.869Z,23.33
2024-02-06T12:22:25.612Z,22.00
2024-02-06T12:23:27.409Z,22.50
2024-02-06T12:24:29.206Z,23.17
2024-02-06T12:25:31.938Z,24.00
2024-02-06T12:26:35.006Z,24.00
2024-02-06T12:27:40.061Z,23.17
2024-02-06T12:28:43.630Z,22.67
2024-02-06T12:29:45.432Z,22.00
2024-02-06T12:30:52.449Z,22.33
2024-02-06T12:31:57.048Z,23.00
2024-02-06T12:33:02.633Z,23.00
2024-02-06T12:34:11.732Z,23.00
2024-02-06T12:35:13.670Z,22.00
2024-02-06T12:36:16.452Z,22.00
2024-02-06T12:37:18.617Z,24.33
2024-02-06T12:38:20.919Z,60.00
2024-02-06T12:39:23.177Z,84.00
2024-02-06T12:40:32.611Z,74.00
2024-02-06T12:41:35.622Z,60.00
2024-02-06T12:42:37.364Z,54.33
2024-02-06T12:43:39.103Z,51.67
2024-02-06T12:44:48.367Z,49.83
2024-02-06T12:45:52.186Z,44.67
2024-02-06T12:47:00.375Z,30.00
2024-02-06T12:48:03.658Z,20.00
2024-02-06T12:49:06.606Z,18.83
2024-02-06T12:50:12.367Z,19.33
2024-02-06T12:51:16.127Z,21.17
2024-02-06T12:52:21.352Z,22.33
2024-02-06T12:53:27.116Z,23.00
2024-02-06T12:54:29.220Z,23.00
2024-02-06T12:55:32.009Z,23.00
2024-02-06T12:56:35.857Z,23.50
2024-02-06T12:57:38.637Z,23.83
2024-02-06T12:58:41.288Z,23.00
2024-02-06T12:59:43.489Z,22.67
2024-02-06T13:00:45.250Z,22.00
2024-02-06T13:01:47.075Z,22.67
2024-02-06T13:03:03.170Z,23.00
2024-02-06T13:04:05.384Z,24.00
2024-02-06T13:05:16.908Z,24.50
2024-02-06T13:06:18.875Z,26.00
2024-02-06T13:07:26.646Z,26.00
2024-02-06T13:08:31.679Z,26.00
2024-02-06T13:09:37.005Z,26.00
2024-02-06T13:10:39.913Z,25.50
2024-02-06T13:11:41.808Z,25.00
2024-02-06T13:12:43.710Z,25.00